Time;durP1;ratioP1;P1;durP2;ratioP2;P2;SDS_P1;SDS_P2;PMS_P1;PMS_P2;Temp;Humidity;BMP_temperature;BMP_pressure;BME280_temperature;BME280_humidity;BME280_pressure;Samples;Min_cycle;Max_cycle;Signal;HPM_P1;HPM_P2
2022/04/09 00:02:20;;;;;;;2.50;0.20;;;1.70;99.90;;;;;;5082757;28;20913;-51
2022/04/09 00:04:47;;;;;;;2.50;0.20;;;1.70;99.90;;;;;;5079786;28;20780;-50
2022/04/09 00:07:13;;;;;;;2.50;0.20;;;1.80;99.90;;;;;;5082296;28;20386;-51
2022/04/09 00:09:39;;;;;;;2.50;0.20;;;1.70;99.90;;;;;;5082209;28;20748;-51
2022/04/09 00:12:05;;;;;;;2.50;0.20;;;1.60;99.90;;;;;;5081528;28;20880;-51
2022/04/09 00:14:31;;;;;;;2.50;0.20;;;1.80;99.90;;;;;;5081615;28;20509;-51
2022/04/09 00:16:56;;;;;;;2.50;0.20;;;1.80;99.90;;;;;;5084888;28;20843;-51
2022/04/09 00:19:22;;;;;;;2.50;0.20;;;1.80;99.90;;;;;;5079207;28;20752;-51
2022/04/09 00:21:48;;;;;;;2.50;0.20;;;1.80;99.90;;;;;;5062042;28;20929;-51
2022/04/09 00:24:13;;;;;;;2.50;0.20;;;1.80;99.90;;;;;;5062652;28;20389;-50
2022/04/09 00:26:40;;;;;;;2.50;0.20;;;1.80;99.90;;;;;;5062346;28;20475;-51
2022/04/09 00:29:06;;;;;;;2.50;0.20;;;1.60;99.90;;;;;;5060643;28;20476;-50
2022/04/09 00:31:32;;;;;;;2.40;0.20;;;1.60;99.90;;;;;;5060173;28;20459;-50
2022/04/09 00:33:59;;;;;;;2.50;0.20;;;1.60;99.90;;;;;;5060340;28;20688;-50
2022/04/09 00:36:24;;;;;;;2.50;0.20;;;1.50;99.90;;;;;;5062654;28;20803;-50
2022/04/09 00:38:50;;;;;;;2.50;0.20;;;1.50;99.90;;;;;;5061650;28;20415;-51
2022/04/09 00:41:16;;;;;;;2.50;0.20;;;1.50;99.90;;;;;;5061775;28;20374;-50
2022/04/09 00:43:43;;;;;;;2.50;0.20;;;1.50;99.90;;;;;;5059388;28;20466;-50
2022/04/09 00:46:12;;;;;;;2.50;0.20;;;1.50;99.90;;;;;;5060978;28;20393;-50
2022/04/09 00:48:38;;;;;;;2.50;0.20;;;1.50;99.90;;;;;;5061201;28;20393;-50
2022/04/09 00:51:04;;;;;;;2.50;0.20;;;1.50;99.90;;;;;;5060431;28;20399;-51
2022/04/09 00:53:35;;;;;;;2.50;0.20;;;1.50;99.90;;;;;;5058937;28;20456;-50
2022/04/09 00:56:20;;;;;;;2.50;0.20;;;1.40;99.90;;;;;;5058290;28;20689;-50
2022/04/09 00:58:57;;;;;;;2.50;0.20;;;1.50;99.90;;;;;;5058617;28;20415;-51
2022/04/09 01:01:24;;;;;;;2.50;0.20;;;1.60;99.90;;;;;;5040727;28;20407;-50
2022/04/09 01:03:51;;;;;;;2.50;0.22;;;1.50;99.90;;;;;;5059405;28;20557;-50
2022/04/09 01:06:17;;;;;;;2.80;0.60;;;1.60;99.90;;;;;;5060822;28;20856;-50
2022/04/09 01:08:43;;;;;;;2.50;0.20;;;1.60;99.90;;;;;;5061969;28;20404;-50
2022/04/09 01:11:08;;;;;;;2.50;0.20;;;1.50;99.90;;;;;;5064454;28;20392;-50
2022/04/09 01:13:35;;;;;;;2.50;0.20;;;1.50;99.90;;;;;;5062425;28;20382;-50
2022/04/09 01:16:01;;;;;;;2.50;0.30;;;1.60;99.90;;;;;;5059773;28;20380;-50
2022/04/09 01:18:27;;;;;;;2.40;0.20;;;1.60;99.90;;;;;;5062365;28;20404;-50
2022/04/09 01:20:57;;;;;;;2.40;0.20;;;1.50;99.90;;;;;;5063283;28;20955;-51
2022/04/09 01:23:23;;;;;;;2.50;0.20;;;1.40;99.90;;;;;;5061742;28;20896;-51
2022/04/09 01:25:49;;;;;;;2.40;0.20;;;1.50;99.90;;;;;;5044400;28;20398;-50
2022/04/09 01:28:14;;;;;;;2.40;0.20;;;1.50;99.90;;;;;;5062530;28;20420;-50
2022/04/09 01:30:40;;;;;;;2.58;0.35;;;1.50;99.90;;;;;;5057639;28;20475;-50
2022/04/09 01:33:06;;;;;;;2.40;0.20;;;1.60;99.90;;;;;;5061069;28;20404;-50
2022/04/09 01:35:32;;;;;;;2.50;0.30;;;1.60;99.90;;;;;;5059908;28;20384;-50
2022/04/09 01:37:57;;;;;;;2.50;0.20;;;1.80;99.90;;;;;;5060010;28;20393;-51
2022/04/09 01:40:23;;;;;;;2.50;0.20;;;1.70;99.90;;;;;;5061962;28;20430;-50
2022/04/09 01:42:49;;;;;;;3.60;0.70;;;3.60;99.90;;;;;;5058028;28;20405;-51
2022/04/09 01:45:14;;;;;;;2.90;0.50;;;1.80;99.90;;;;;;5059490;28;20452;-51
2022/04/09 01:47:42;;;;;;;2.50;0.20;;;1.80;99.90;;;;;;5058397;28;20386;-50
2022/04/09 01:50:14;;;;;;;2.50;0.20;;;1.90;99.90;;;;;;5061796;28;20403;-51
2022/04/09 01:52:41;;;;;;;2.40;0.20;;;1.90;99.90;;;;;;5058248;28;20483;-50
2022/04/09 01:55:07;;;;;;;2.50;0.30;;;2.00;99.90;;;;;;5061062;28;20396;-51
2022/04/09 01:57:34;;;;;;;2.50;0.20;;;2.00;99.90;;;;;;5055766;28;20393;-50
2022/04/09 02:00:00;;;;;;;2.50;0.20;;;2.10;99.90;;;;;;5061683;28;20474;-52
2022/04/09 02:02:25;;;;;;;2.50;0.20;;;2.10;99.90;;;;;;5060105;28;20411;-51
2022/04/09 02:04:51;;;;;;;2.80;0.50;;;2.00;99.90;;;;;;5060879;28;20947;-52
2022/04/09 02:07:17;;;;;;;2.50;0.40;;;2.00;99.90;;;;;;5057651;28;20895;-52
2022/04/09 02:09:42;;;;;;;2.50;0.20;;;1.90;99.90;;;;;;5060068;28;20398;-51
2022/04/09 02:12:08;;;;;;;3.00;0.60;;;1.90;99.90;;;;;;5025747;28;20765;-51
2022/04/09 02:14:34;;;;;;;2.50;0.20;;;1.90;99.90;;;;;;5057559;28;20400;-51
2022/04/09 02:16:59;;;;;;;2.50;0.20;;;1.90;99.90;;;;;;5061319;28;20396;-52
2022/04/09 02:19:25;;;;;;;2.50;0.20;;;1.90;99.90;;;;;;5058582;28;20539;-51
2022/04/09 02:21:51;;;;;;;2.50;0.20;;;1.90;99.90;;;;;;5059931;28;20738;-52
2022/04/09 02:24:16;;;;;;;2.50;0.20;;;1.90;99.90;;;;;;5060726;28;20398;-51
2022/04/09 02:26:42;;;;;;;2.50;0.20;;;1.80;99.90;;;;;;5060350;28;20408;-52
2022/04/09 02:29:08;;;;;;;2.50;0.20;;;1.90;99.90;;;;;;5060637;28;20911;-51
2022/04/09 02:31:33;;;;;;;2.60;0.20;;;1.80;99.90;;;;;;5058755;28;20484;-51
2022/04/09 02:33:59;;;;;;;2.50;0.20;;;1.80;99.90;;;;;;5060639;28;20392;-52
2022/04/09 02:36:25;;;;;;;2.50;0.20;;;1.80;99.90;;;;;;5061174;28;20899;-51
2022/04/09 02:38:50;;;;;;;2.50;0.30;;;1.80;99.90;;;;;;5060021;28;20870;-51
2022/04/09 02:41:16;;;;;;;2.50;0.20;;;1.80;99.90;;;;;;5059232;28;20411;-51
2022/04/09 02:43:43;;;;;;;2.90;0.40;;;1.80;99.90;;;;;;5059234;28;20430;-51
2022/04/09 02:46:09;;;;;;;2.50;0.20;;;3.50;99.90;;;;;;5043047;28;20446;-51
2022/04/09 02:48:35;;;;;;;2.50;0.30;;;1.80;99.90;;;;;;5057972;28;20421;-51
2022/04/09 02:51:00;;;;;;;2.50;0.30;;;1.80;99.90;;;;;;5058717;28;20834;-51
2022/04/09 02:53:26;;;;;;;2.50;0.20;;;1.80;99.90;;;;;;5059463;28;20775;-51
2022/04/09 02:55:52;;;;;;;2.50;0.20;;;1.80;99.90;;;;;;5058490;28;20401;-51
2022/04/09 02:58:18;;;;;;;2.50;0.20;;;1.80;99.90;;;;;;5059391;28;20455;-51
2022/04/09 03:00:44;;;;;;;2.50;0.20;;;1.80;99.90;;;;;;5059912;28;20424;-51
2022/04/09 03:03:09;;;;;;;2.50;0.20;;;1.90;99.90;;;;;;5057714;28;20453;-51
2022/04/09 03:05:35;;;;;;;3.40;0.80;;;1.90;99.90;;;;;;5057344;28;20396;-52
2022/04/09 03:08:01;;;;;;;2.50;0.20;;;1.90;99.90;;;;;;5058984;28;20400;-51
2022/04/09 03:10:26;;;;;;;2.50;0.20;;;2.00;99.90;;;;;;5040067;28;20392;-51
2022/04/09 03:12:52;;;;;;;2.50;0.20;;;2.00;99.90;;;;;;5058865;28;20389;-51
2022/04/09 03:15:18;;;;;;;2.50;0.20;;;2.00;99.90;;;;;;5059858;28;20538;-51
2022/04/09 03:17:44;;;;;;;2.50;0.20;;;2.10;99.90;;;;;;5056974;28;20398;-51
2022/04/09 03:20:10;;;;;;;2.50;0.20;;;2.10;99.90;;;;;;5048201;28;20560;-52
2022/04/09 03:22:36;;;;;;;2.50;0.20;;;2.20;99.90;;;;;;5077064;28;20403;-51
2022/04/09 03:25:03;;;;;;;2.60;0.30;;;2.10;99.90;;;;;;5080333;28;20879;-51
2022/04/09 03:27:29;;;;;;;2.50;0.20;;;2.10;99.90;;;;;;5078077;28;20380;-51
2022/04/09 03:29:55;;;;;;;2.50;0.20;;;2.10;99.90;;;;;;5076163;28;20396;-51
2022/04/09 03:32:21;;;;;;;2.50;0.20;;;2.10;99.90;;;;;;5062789;28;20396;-51
2022/04/09 03:34:48;;;;;;;2.50;0.20;;;2.20;99.90;;;;;;5082182;28;20382;-51
2022/04/09 03:37:14;;;;;;;2.50;0.20;;;2.20;99.90;;;;;;5082377;28;20403;-51
2022/04/09 03:39:41;;;;;;;2.50;0.20;;;2.20;99.90;;;;;;5083131;28;20386;-51
2022/04/09 03:42:08;;;;;;;2.50;0.20;;;2.20;99.90;;;;;;5083013;28;20433;-51
2022/04/09 03:44:34;;;;;;;2.90;0.50;;;2.20;99.90;;;;;;5081642;28;20384;-51
2022/04/09 03:47:00;;;;;;;2.50;0.20;;;2.20;99.90;;;;;;5083591;28;20808;-51
2022/04/09 03:49:28;;;;;;;2.50;0.20;;;2.20;99.90;;;;;;5083544;28;20476;-51
2022/04/09 03:51:54;;;;;;;2.60;0.40;;;2.30;99.90;;;;;;5083937;28;20387;-51
2022/04/09 03:54:19;;;;;;;2.60;0.40;;;2.20;99.90;;;;;;5084243;28;20885;-51
2022/04/09 03:56:45;;;;;;;2.50;0.20;;;2.20;99.90;;;;;;5081542;28;20486;-51
2022/04/09 03:59:11;;;;;;;2.70;0.40;;;2.20;99.90;;;;;;5083921;28;20391;-51
2022/04/09 04:01:37;;;;;;;2.60;0.20;;;2.30;99.90;;;;;;5063612;28;20406;-51
2022/04/09 04:04:03;;;;;;;2.60;0.30;;;2.40;99.90;;;;;;5082167;28;20419;-51
2022/04/09 04:06:29;;;;;;;3.00;0.70;;;2.30;99.90;;;;;;5081576;28;20450;-51
2022/04/09 04:08:55;;;;;;;2.60;0.20;;;2.30;99.90;;;;;;5083258;28;20394;-51
2022/04/09 04:11:22;;;;;;;3.30;1.00;;;2.30;99.90;;;;;;5081832;28;20382;-51
2022/04/09 04:13:49;;;;;;;3.10;0.90;;;2.30;99.90;;;;;;5081842;28;20991;-51
2022/04/09 04:16:15;;;;;;;2.70;0.60;;;2.20;99.90;;;;;;5081420;28;20438;-51
2022/04/09 04:18:41;;;;;;;2.70;0.40;;;2.20;99.90;;;;;;5079843;28;20420;-51
2022/04/09 04:21:08;;;;;;;2.60;0.20;;;2.20;99.90;;;;;;5069978;28;20400;-52
2022/04/09 04:23:34;;;;;;;2.60;0.30;;;2.30;99.90;;;;;;5062170;28;20491;-51
2022/04/09 04:26:00;;;;;;;2.60;0.20;;;2.20;99.90;;;;;;5063052;28;20394;-51
2022/04/09 04:28:26;;;;;;;2.70;0.40;;;2.20;99.90;;;;;;5061325;28;20468;-51
2022/04/09 04:30:51;;;;;;;2.70;0.50;;;2.20;99.90;;;;;;5061269;28;20482;-52
2022/04/09 04:33:17;;;;;;;2.60;0.30;;;2.20;99.90;;;;;;5063243;28;20521;-51
2022/04/09 04:35:43;;;;;;;2.60;0.25;;;2.20;99.90;;;;;;5058700;28;20413;-51
2022/04/09 04:38:08;;;;;;;2.60;0.20;;;2.10;99.90;;;;;;5064075;28;20401;-51
2022/04/09 04:40:34;;;;;;;2.60;0.20;;;2.10;99.90;;;;;;5060298;28;20408;-51
2022/04/09 04:43:00;;;;;;;3.00;1.00;;;2.10;99.90;;;;;;5061486;28;20399;-52
2022/04/09 04:45:26;;;;;;;2.80;0.60;;;2.10;99.90;;;;;;5059811;28;20501;-51
2022/04/09 04:47:51;;;;;;;2.60;0.20;;;2.10;99.90;;;;;;5061300;28;20399;-51
2022/04/09 04:50:18;;;;;;;3.30;0.90;;;2.00;99.90;;;;;;5062630;28;20427;-52
2022/04/09 04:52:45;;;;;;;2.60;0.30;;;2.00;99.90;;;;;;5060834;28;20399;-52
2022/04/09 04:55:11;;;;;;;2.60;0.30;;;1.90;99.90;;;;;;5062641;28;20403;-52
2022/04/09 04:57:45;;;;;;;3.10;0.80;;;2.00;99.90;;;;;;5059357;28;20397;-51
2022/04/09 05:00:12;;;;;;;2.60;0.20;;;2.00;99.90;;;;;;5060320;28;20473;-51
2022/04/09 05:02:38;;;;;;;2.60;0.25;;;1.90;99.90;;;;;;5060649;28;20407;-51
2022/04/09 05:05:04;;;;;;;2.60;0.30;;;2.00;99.90;;;;;;5062849;28;20386;-51
2022/04/09 05:07:47;;;;;;;2.60;0.20;;;2.00;99.90;;;;;;5059511;28;20414;-51
2022/04/09 05:10:23;;;;;;;3.90;1.40;;;2.10;99.90;;;;;;5059918;28;20516;-52
2022/04/09 05:12:51;;;;;;;2.70;0.40;;;2.10;99.90;;;;;;5059968;28;21025;-52
2022/04/09 05:15:17;;;;;;;2.60;0.20;;;2.20;99.90;;;;;;5061290;28;20398;-51
2022/04/09 05:17:44;;;;;;;2.60;0.40;;;2.20;99.90;;;;;;5059463;28;20435;-51
2022/04/09 05:20:15;;;;;;;2.60;0.20;;;2.40;99.90;;;;;;5060214;28;20419;-51
2022/04/09 05:22:46;;;;;;;2.60;0.25;;;2.50;99.90;;;;;;5060147;28;20408;-51
2022/04/09 05:25:18;;;;;;;2.70;0.40;;;2.50;99.90;;;;;;5060424;28;20427;-51
2022/04/09 05:27:44;;;;;;;2.60;0.25;;;2.50;99.90;;;;;;5059321;28;20391;-51
2022/04/09 05:30:10;;;;;;;2.70;0.40;;;2.50;99.90;;;;;;5062651;28;20401;-51
2022/04/09 05:32:36;;;;;;;2.70;0.20;;;2.60;99.90;;;;;;5059975;28;20863;-51
2022/04/09 05:35:07;;;;;;;2.70;0.33;;;2.90;99.90;;;;;;5059158;28;20464;-51
2022/04/09 05:37:32;;;;;;;2.70;0.20;;;3.20;99.90;;;;;;5058696;28;20473;-51
2022/04/09 05:39:58;;;;;;;2.60;0.20;;;3.30;99.90;;;;;;5061597;28;20516;-51
2022/04/09 05:42:25;;;;;;;2.85;0.65;;;3.30;99.90;;;;;;5059376;28;20410;-51
2022/04/09 05:44:54;;;;;;;2.72;0.28;;;3.50;99.90;;;;;;5059322;28;21201;-51
2022/04/09 05:47:20;;;;;;;3.70;1.10;;;3.60;99.90;;;;;;5058761;28;20417;-51
2022/04/09 05:49:46;;;;;;;2.70;0.20;;;3.60;99.90;;;;;;5042945;28;20443;-51
2022/04/09 05:52:12;;;;;;;3.10;0.50;;;3.70;99.90;;;;;;5060121;28;20451;-51
2022/04/09 05:54:38;;;;;;;2.70;0.20;;;3.50;99.90;;;;;;5061259;28;20375;-51
2022/04/09 05:57:05;;;;;;;2.80;0.40;;;3.50;99.90;;;;;;5060439;28;20536;-51
2022/04/09 05:59:31;;;;;;;2.80;0.20;;;3.40;99.90;;;;;;5058760;28;20496;-51
2022/04/09 06:01:57;;;;;;;3.30;0.50;;;3.30;99.90;;;;;;5058997;28;20855;-51
2022/04/09 06:04:23;;;;;;;2.80;0.30;;;3.50;99.90;;;;;;5059056;28;20405;-51
2022/04/09 06:06:49;;;;;;;2.80;0.20;;;3.70;99.90;;;;;;5040487;28;20405;-51
2022/04/09 06:09:15;;;;;;;3.00;0.50;;;4.10;99.90;;;;;;5058419;28;20395;-51
2022/04/09 06:11:42;;;;;;;2.90;0.30;;;4.70;99.90;;;;;;5061635;28;20391;-52
2022/04/09 06:14:10;;;;;;;3.10;0.50;;;5.00;99.90;;;;;;5057640;28;20404;-51
2022/04/09 06:16:38;;;;;;;3.30;0.70;;;5.30;99.90;;;;;;5042987;28;20394;-51
2022/04/09 06:19:05;;;;;;;11.80;0.80;;;5.70;99.90;;;;;;5041388;28;20762;-51
2022/04/09 06:21:32;;;;;;;3.22;0.55;;;6.20;99.90;;;;;;5061460;28;20426;-52
2022/04/09 06:24:00;;;;;;;3.00;0.20;;;6.30;99.90;;;;;;5058526;28;20432;-51
2022/04/09 06:26:27;;;;;;;3.00;0.20;;;6.50;99.90;;;;;;5058950;28;20376;-50
2022/04/09 06:28:53;;;;;;;4.20;0.60;;;6.70;99.90;;;;;;5059706;28;20445;-50
2022/04/09 06:31:19;;;;;;;3.27;0.30;;;6.70;99.90;;;;;;5054123;28;21266;-49
2022/04/09 06:33:44;;;;;;;3.50;1.00;;;6.40;99.90;;;;;;5055711;28;20407;-49
2022/04/09 06:36:10;;;;;;;3.20;0.40;;;6.60;99.90;;;;;;5063756;28;20402;-50
2022/04/09 06:38:36;;;;;;;3.10;0.40;;;6.70;99.90;;;;;;5057988;28;20807;-50
2022/04/09 06:41:01;;;;;;;3.10;0.20;;;6.80;99.90;;;;;;5057981;28;20486;-50
2022/04/09 06:43:27;;;;;;;3.60;0.60;;;6.70;99.90;;;;;;5057595;28;20508;-49
2022/04/09 06:45:53;;;;;;;3.10;0.30;;;7.50;99.90;;;;;;5060190;28;20475;-49
2022/04/09 06:48:19;;;;;;;3.50;0.90;;;6.90;99.90;;;;;;5067233;28;20431;-50
2022/04/09 06:50:44;;;;;;;3.70;0.70;;;7.20;99.90;;;;;;5061944;28;20887;-50
2022/04/09 06:53:10;;;;;;;3.60;0.60;;;7.10;99.90;;;;;;5061032;28;20411;-52
2022/04/09 06:55:36;;;;;;;3.20;0.20;;;7.60;99.90;;;;;;5060855;28;20919;-52
2022/04/09 06:58:03;;;;;;;3.20;0.20;;;7.80;99.90;;;;;;5057817;28;20451;-52
2022/04/09 07:00:29;;;;;;;3.70;0.90;;;8.00;99.90;;;;;;5061742;28;20407;-52
2022/04/09 07:02:55;;;;;;;3.20;0.20;;;7.60;99.90;;;;;;5063409;28;20426;-52
2022/04/09 07:05:20;;;;;;;3.50;0.60;;;7.80;99.90;;;;;;5064631;28;20399;-52
2022/04/09 07:07:50;;;;;;;3.30;0.30;;;7.80;99.90;;;;;;5069596;28;20408;-52
2022/04/09 07:10:16;;;;;;;3.35;0.25;;;8.50;99.90;;;;;;5068647;28;20431;-52
2022/04/09 07:12:43;;;;;;;3.50;0.50;;;9.10;99.90;;;;;;5073725;28;20391;-52
2022/04/09 07:15:09;;;;;;;3.40;0.30;;;9.70;99.90;;;;;;5071700;28;20405;-52
2022/04/09 07:17:35;;;;;;;8.10;3.50;;;9.70;99.90;;;;;;5050146;28;20430;-52
2022/04/09 07:20:04;;;;;;;15.13;8.10;;;9.50;99.90;;;;;;5071594;28;20900;-52
2022/04/09 07:22:31;;;;;;;13.52;7.90;;;9.60;99.90;;;;;;5066026;28;20421;-52
2022/04/09 07:24:57;;;;;;;15.95;7.60;;;9.00;99.90;;;;;;5065992;28;20399;-52
2022/04/09 07:27:35;;;;;;;14.43;8.05;;;8.90;99.90;;;;;;5054544;28;20407;-52
2022/04/09 07:30:02;;;;;;;14.80;7.00;;;9.30;99.90;;;;;;5053251;28;20410;-52
2022/04/09 07:32:27;;;;;;;13.50;7.32;;;9.30;99.90;;;;;;5070355;28;20407;-52
2022/04/09 07:34:53;;;;;;;14.10;6.77;;;9.90;99.90;;;;;;5065457;28;20417;-52
2022/04/09 07:37:19;;;;;;;11.50;6.80;;;10.20;99.90;;;;;;5071204;28;20419;-53
2022/04/09 07:39:45;;;;;;;11.38;6.22;;;10.40;99.90;;;;;;5067393;28;20412;-53
2022/04/09 07:42:10;;;;;;;12.00;6.10;;;10.50;99.90;;;;;;5073106;28;20383;-53
2022/04/09 07:44:36;;;;;;;9.90;5.83;;;10.20;99.90;;;;;;5072074;28;21191;-53
2022/04/09 07:47:02;;;;;;;12.30;6.25;;;9.40;99.90;;;;;;5068590;28;20399;-52
2022/04/09 07:49:27;;;;;;;9.30;5.57;;;8.90;99.90;;;;;;5071797;28;20408;-53
2022/04/09 07:51:54;;;;;;;11.98;5.22;;;9.20;99.90;;;;;;5068535;28;20988;-52
2022/04/09 07:54:20;;;;;;;9.85;5.38;;;8.40;99.90;;;;;;5063190;28;20761;-50
2022/04/09 07:56:46;;;;;;;17.25;6.07;;;6.90;99.90;;;;;;5063299;28;20408;-50
2022/04/09 07:59:12;;;;;;;10.98;5.55;;;6.60;99.90;;;;;;5073191;28;20396;-51
2022/04/09 08:01:38;;;;;;;11.73;5.50;;;6.30;99.90;;;;;;5075318;28;20392;-52
2022/04/09 08:04:04;;;;;;;11.40;5.00;;;6.20;99.90;;;;;;5069144;28;20924;-52
2022/04/09 08:06:29;;;;;;;14.83;6.20;;;5.90;99.90;;;;;;5070424;28;20408;-52
2022/04/09 08:08:55;;;;;;;14.10;6.30;;;5.70;99.90;;;;;;5070698;28;20730;-52
2022/04/09 08:11:21;;;;;;;12.57;6.03;;;6.00;99.90;;;;;;5072136;28;20376;-52
2022/04/09 08:13:46;;;;;;;16.00;6.13;;;5.70;99.90;;;;;;5070682;28;20404;-52
2022/04/09 08:16:12;;;;;;;11.52;5.90;;;5.30;99.90;;;;;;5071549;28;20509;-52
2022/04/09 08:18:39;;;;;;;12.63;5.82;;;5.40;99.90;;;;;;5061908;28;20720;-52
2022/04/09 08:21:06;;;;;;;12.13;6.15;;;5.50;99.90;;;;;;5075267;28;20425;-52
2022/04/09 08:23:33;;;;;;;11.63;6.50;;;5.50;99.90;;;;;;5081187;28;20428;-52
2022/04/09 08:26:00;;;;;;;16.10;7.50;;;5.40;99.90;;;;;;5069011;28;20400;-52
2022/04/09 08:28:30;;;;;;;18.52;7.15;;;5.40;99.90;;;;;;5084719;28;20392;-52
2022/04/09 08:30:56;;;;;;;15.63;7.75;;;5.30;99.90;;;;;;5088970;28;20794;-52
2022/04/09 08:33:22;;;;;;;17.95;7.00;;;5.20;99.90;;;;;;5085688;28;20397;-52
2022/04/09 08:35:48;;;;;;;13.75;7.35;;;5.20;99.90;;;;;;5084587;28;20393;-52
2022/04/09 08:38:14;;;;;;;13.33;6.13;;;5.60;99.90;;;;;;5082710;28;20473;-52
2022/04/09 08:40:41;;;;;;;14.95;6.70;;;5.90;99.90;;;;;;5090138;28;20911;-50
2022/04/09 08:43:08;;;;;;;14.52;6.70;;;6.30;99.90;;;;;;5091218;28;20448;-50
2022/04/09 08:45:40;;;;;;;13.10;6.35;;;6.60;99.90;;;;;;5072978;28;20386;-51
2022/04/09 08:48:07;;;;;;;13.80;5.93;;;6.40;99.90;;;;;;5075382;28;20479;-52
2022/04/09 08:50:35;;;;;;;11.32;6.30;;;6.20;99.90;;;;;;5070864;28;20421;-52
2022/04/09 08:53:06;;;;;;;14.57;6.55;;;6.20;99.90;;;;;;5067205;28;20747;-50
2022/04/09 08:55:33;;;;;;;13.00;6.50;;;6.50;99.90;;;;;;5089831;28;20457;-50
2022/04/09 08:57:59;;;;;;;14.82;7.30;;;6.60;99.90;;;;;;5090333;28;20394;-50
2022/04/09 09:00:24;;;;;;;11.15;5.30;;;6.90;99.90;;;;;;5089920;28;20378;-51
2022/04/09 09:02:55;;;;;;;11.70;5.40;;;7.40;99.90;;;;;;5085285;28;20423;-51
2022/04/09 09:05:41;;;;;;;11.88;5.95;;;7.30;99.90;;;;;;5069674;28;20429;-51
2022/04/09 09:08:08;;;;;;;14.15;5.90;;;7.50;99.90;;;;;;5080654;28;20402;-51
2022/04/09 09:10:38;;;;;;;11.43;5.30;;;7.10;99.90;;;;;;5087556;28;20910;-51
2022/04/09 09:13:10;;;;;;;13.50;5.90;;;7.40;99.90;;;;;;5081056;28;20409;-51
2022/04/09 09:15:45;;;;;;;16.67;5.70;;;7.60;99.90;;;;;;5089391;28;20379;-51
2022/04/09 09:18:27;;;;;;;10.93;5.45;;;8.10;99.90;;;;;;5090899;28;20756;-51
2022/04/09 09:21:00;;;;;;;12.95;5.32;;;8.80;99.90;;;;;;5076471;28;20418;-51
2022/04/09 09:23:29;;;;;;;15.10;5.10;;;8.70;99.90;;;;;;5078930;28;20509;-51
2022/04/09 09:25:56;;;;;;;12.10;6.10;;;8.00;99.90;;;;;;5073737;28;20380;-51
2022/04/09 09:28:26;;;;;;;11.68;5.93;;;;;;;;;;5074265;28;20398;-51
2022/04/09 09:30:52;;;;;;;13.47;5.57;;;;;;;;;;5072112;28;20457;-51
2022/04/09 09:33:18;;;;;;;11.37;4.90;;;;;;;;;;5090771;28;20406;-51
2022/04/09 09:35:54;;;;;;;12.63;5.00;;;;;;;;;;5071815;28;20376;-52
2022/04/09 09:38:21;;;;;;;9.35;3.70;;;;;;;;;;5070450;28;20453;-51
2022/04/09 09:40:48;;;;;;;11.57;4.63;;;;;;;;;;5075061;28;20377;-51
2022/04/09 09:43:18;;;;;;;10.45;4.03;;;;;;;;;;5090685;28;20493;-51
2022/04/09 09:45:45;;;;;;;10.47;4.37;;;;;;;;;;5090003;28;20374;-51
2022/04/09 09:48:26;;;;;;;12.00;4.50;;;12.10;99.90;;;;;;5090601;28;20449;-51
2022/04/09 09:50:54;;;;;;;11.93;4.65;;;10.70;99.90;;;;;;5090204;28;20393;-51
2022/04/09 09:53:34;;;;;;;10.63;4.17;;;9.30;99.90;;;;;;5090465;28;20455;-51
2022/04/09 09:56:01;;;;;;;10.68;4.28;;;8.90;99.90;;;;;;5089148;28;20836;-51
2022/04/09 09:58:29;;;;;;;12.95;3.90;;;9.80;99.90;;;;;;5089588;28;20386;-51
2022/04/09 10:00:58;;;;;;;11.73;4.50;;;9.60;99.90;;;;;;5088239;28;20389;-51
2022/04/09 10:03:27;;;;;;;9.67;3.93;;;9.70;99.90;;;;;;5088004;28;20432;-51
2022/04/09 10:05:54;;;;;;;10.05;4.78;;;9.10;99.90;;;;;;5083251;28;20993;-51
2022/04/09 10:08:21;;;;;;;12.40;4.10;;;9.20;99.90;;;;;;5079437;28;20414;-51
2022/04/09 10:10:50;;;;;;;11.90;3.88;;;8.90;99.90;;;;;;5077444;28;20940;-51
2022/04/09 10:13:21;;;;;;;13.13;4.60;;;9.30;99.90;;;;;;5084202;28;20396;-51
2022/04/09 10:15:50;;;;;;;12.52;4.00;;;9.30;99.90;;;;;;5074260;28;20829;-51
2022/04/09 10:18:22;;;;;;;10.15;4.00;;;9.50;99.90;;;;;;5082928;28;20400;-51
2022/04/09 10:20:56;;;;;;;14.17;4.73;;;10.40;99.90;;;;;;5093434;28;20417;-51
2022/04/09 10:23:23;;;;;;;10.45;4.30;;;9.60;99.90;;;;;;5087232;28;20414;-52
2022/04/09 10:25:53;;;;;;;10.93;4.10;;;9.10;99.90;;;;;;5076452;28;20401;-52
2022/04/09 10:28:40;;;;;;;10.32;4.50;;;9.20;99.90;;;;;;5081682;28;20427;-52
2022/04/09 10:31:28;;;;;;;13.00;4.53;;;8.50;99.90;;;;;;5088148;28;20722;-52
2022/04/09 10:33:55;;;;;;;12.00;4.30;;;8.10;99.90;;;;;;5080273;28;20540;-51
2022/04/09 10:36:40;;;;;;;12.90;4.30;;;7.90;99.90;;;;;;5085230;28;20488;-51
2022/04/09 10:39:40;;;;;;;9.93;4.40;;;8.30;99.90;;;;;;5083510;28;20398;-52
2022/04/09 10:42:10;;;;;;;9.77;4.70;;;8.70;99.90;;;;;;5075213;28;20402;-52
2022/04/09 10:44:52;;;;;;;12.65;4.78;;;8.70;99.90;;;;;;5066690;28;20398;-51
2022/04/09 10:47:18;;;;;;;12.18;5.10;;;8.10;99.90;;;;;;5076113;28;20392;-51
2022/04/09 10:50:02;;;;;;;10.37;4.40;;;8.00;99.90;;;;;;5085219;28;20401;-52
2022/04/09 10:52:30;;;;;;;11.32;4.88;;;7.60;99.90;;;;;;5083994;28;20433;-51
2022/04/09 10:55:20;;;;;;;10.00;3.92;;;7.80;99.90;;;;;;5076182;28;21298;-51
2022/04/09 10:57:47;;;;;;;10.77;5.30;;;8.40;99.90;;;;;;5084965;28;20921;-51
2022/04/09 11:00:29;;;;;;;13.80;4.90;;;9.10;99.90;;;;;;5082535;28;20402;-52
2022/04/09 11:03:15;;;;;;;10.37;4.17;;;9.40;99.90;;;;;;5084200;28;20579;-52
2022/04/09 11:05:43;;;;;;;14.25;4.30;;;9.10;99.90;;;;;;5084429;28;20405;-52
2022/04/09 11:08:14;;;;;;;14.75;4.13;;;9.10;99.90;;;;;;5084140;28;20406;-51
2022/04/09 11:10:44;;;;;;;9.35;4.60;;;10.10;99.90;;;;;;5083835;28;20478;-52
2022/04/09 11:13:12;;;;;;;11.93;4.88;;;10.00;99.90;;;;;;5083330;28;20408;-52
2022/04/09 11:15:39;;;;;;;10.70;3.75;;;10.30;99.90;;;;;;5076573;28;20429;-52
2022/04/09 11:18:05;;;;;;;10.30;4.25;;;10.00;99.90;;;;;;5085220;28;20386;-52
2022/04/09 11:20:33;;;;;;;11.85;4.00;;;10.00;99.90;;;;;;5086900;28;20455;-52
2022/04/09 11:23:15;;;;;;;9.75;4.13;;;9.60;99.90;;;;;;5087440;28;20423;-52
2022/04/09 11:25:44;;;;;;;10.50;4.17;;;9.30;99.90;;;;;;5072725;28;20438;-52
2022/04/09 11:28:18;;;;;;;8.90;3.80;;;9.20;99.90;;;;;;5078776;28;20390;-52
2022/04/09 11:30:53;;;;;;;13.70;4.38;;;8.90;99.90;;;;;;5074780;28;20407;-52
2022/04/09 11:33:20;;;;;;;10.32;4.60;;;9.10;99.90;;;;;;5075539;28;20465;-52
2022/04/09 11:35:45;;;;;;;9.73;4.10;;;9.50;99.90;;;;;;5082501;28;20487;-52
2022/04/09 11:38:11;;;;;;;10.63;4.10;;;9.60;99.90;;;;;;5076277;28;20479;-52
2022/04/09 11:40:46;;;;;;;7.63;3.40;;;9.90;99.90;;;;;;5075045;28;20737;-52
2022/04/09 11:43:13;;;;;;;12.30;3.40;;;9.60;99.90;;;;;;5078584;28;20414;-52
2022/04/09 11:45:39;;;;;;;9.38;3.80;;;9.80;99.90;;;;;;5087326;28;20385;-52
2022/04/09 11:48:05;;;;;;;9.20;3.67;;;10.20;99.90;;;;;;5088191;28;20389;-52
2022/04/09 11:50:39;;;;;;;13.13;3.80;;;10.10;99.90;;;;;;5085578;28;20964;-52
2022/04/09 11:53:23;;;;;;;10.13;4.00;;;10.20;99.90;;;;;;5078916;28;20429;-52
2022/04/09 11:55:57;;;;;;;10.18;3.50;;;10.40;99.90;;;;;;5072026;28;20391;-52
2022/04/09 11:58:30;;;;;;;13.05;4.15;;;10.70;99.90;;;;;;5088692;28;20389;-53
2022/04/09 12:00:57;;;;;;;10.98;4.05;;;11.00;99.90;;;;;;5091205;28;20397;-52
2022/04/09 12:03:23;;;;;;;8.88;3.53;;;10.60;99.90;;;;;;5089999;28;20409;-52
2022/04/09 12:05:51;;;;;;;10.02;3.30;;;10.70;99.90;;;;;;5071344;28;20447;-52
2022/04/09 12:08:18;;;;;;;7.65;3.30;;;10.30;99.90;;;;;;5072396;28;20372;-55
2022/04/09 12:10:57;;;;;;;8.75;2.72;;;10.50;99.90;;;;;;5071343;28;20857;-52
2022/04/09 12:13:28;;;;;;;8.40;3.10;;;10.20;99.90;;;;;;5076076;28;20382;-52
2022/04/09 12:15:54;;;;;;;9.63;3.40;;;10.30;99.90;;;;;;5091397;28;20946;-52
2022/04/09 12:18:29;;;;;;;8.48;3.25;;;10.50;99.90;;;;;;5092784;28;20382;-52
2022/04/09 12:20:55;;;;;;;10.90;3.35;;;10.00;99.90;;;;;;5091456;28;20493;-52
2022/04/09 12:23:31;;;;;;;9.38;3.58;;;9.50;99.90;;;;;;5092393;28;20409;-52
2022/04/09 12:25:57;;;;;;;9.60;3.90;;;9.80;99.90;;;;;;5091578;28;20432;-53
2022/04/09 12:28:33;;;;;;;8.43;3.10;;;9.80;99.90;;;;;;5092303;28;20844;-53
2022/04/09 12:31:00;;;;;;;7.90;2.90;;;9.70;99.90;;;;;;5092065;28;20495;-53
2022/04/09 12:33:26;;;;;;;9.35;3.13;;;10.10;99.90;;;;;;5092315;28;20382;-53
2022/04/09 12:36:05;;;;;;;8.85;2.95;;;10.10;99.90;;;;;;5071902;28;20383;-53
2022/04/09 12:38:39;;;;;;;8.45;3.00;;;10.30;99.90;;;;;;5054127;28;20886;-53
2022/04/09 12:41:06;;;;;;;8.80;3.00;;;10.30;99.90;;;;;;5071942;28;20891;-53
2022/04/09 12:43:40;;;;;;;10.40;2.63;;;9.90;99.90;;;;;;5071562;28;20536;-53
2022/04/09 12:46:08;;;;;;;9.73;2.60;;;9.50;99.90;;;;;;5071597;28;20383;-51
2022/04/09 12:48:37;;;;;;;8.35;2.90;;;9.30;99.90;;;;;;5071749;28;20394;-51
2022/04/09 12:51:03;;;;;;;8.18;2.80;;;9.10;99.90;;;;;;5071623;28;20748;-53
2022/04/09 12:53:29;;;;;;;7.33;2.90;;;9.60;99.90;;;;;;5071467;28;20395;-53
2022/04/09 12:55:55;;;;;;;8.80;2.50;;;9.90;99.90;;;;;;5070922;28;20429;-52
2022/04/09 12:58:21;;;;;;;8.63;2.15;;;9.80;99.90;;;;;;5071348;28;20372;-53
2022/04/09 13:00:46;;;;;;;8.70;2.60;;;9.90;99.90;;;;;;5052889;28;20480;-53